Radar AviationWeather DUATS TFRs Wunderground Accuweather Weather.com

Radar

TAFs

KFWA 161530Z 1616/1712 23010KT P6SM OVC012
   FM162100 25013KT 5SM -SN BR OVC015
   FM170200 26009KT 5SM BR OVC007
KTOL 161525Z 1615/1712 26004KT 5SM BR OVC005
   FM161800 26007KT P6SM BKN015
   FM170000 25007KT 3SM -SN BR OVC015
   FM170400 25007KT P6SM OVC020
KCLE 161520Z 1615/1718 18004KT P6SM SCT035 BKN070
   FM161800 27008KT P6SM VCSH BKN015
   FM170300 25009KT 3SM -SN BR BKN010
   FM170800 24010KT P6SM OVC010
KDTW 161506Z 1615/1718 24004KT 3SM BR OVC004
   FM161600 24006KT 4SM BR OVC006
   FM161800 24008KT P6SM OVC018
   FM162000 26006KT P6SM OVC026
   FM170200 24008KT P6SM OVC018
   FM170800 24008KT P6SM OVC012
KFDY 161140Z 1612/1712 00000KT P6SM BKN060
   FM161300 VRB03KT P6SM OVC015
   FM161500 26004KT 2SM BR OVC004
   FM161800 25007KT P6SM BKN015
   FM170100 25007KT 3SM -SN BR OVC008
   FM170600 26011KT P6SM OVC010
KJXN 161140Z 1612/1712 21004KT P6SM OVC010
   FM161500 24006KT P6SM OVC009
   FM162000 25007KT P6SM OVC012
   FM170300 26007KT 4SM BR OVC007

METARs

KJXN 161542Z 19008KT 10SM OVC009 M02/M04 A2958 RMK AO2 T10221039
KFDY 161540Z AUTO 30006KT 5SM BR BKN005 OVC040 00/M02 A2960 RMK AO2 T00001017
KDUH 161535Z AUTO 25003KT 1/2SM FZFG OVC002 M02/M03 A2962 RMK AO2 T10231028
KTDZ 161535Z AUTO 27007KT 2SM BR OVC003 M02/M03 A2962 RMK AO2 SNB01E17 P0000 T10221028 $
KFWA 161524Z 23005KT 10SM OVC012 M01/M03 A2963 RMK AO2 T10111028 $
KTOL 161504Z 27007KT 5SM BR OVC005 M03/M04 A2962 RMK AO2 T10281039 $
KDTW 161453Z 32005KT 1SM R03R/P6000FT BR OVC003 M02/M03 A2960 RMK AO2 SFC VIS 2 1/2 SLP032 T10221033 53003
KCLE 161451Z 19003KT 8SM SCT035 BKN070 00/M01 A2957 RMK AO2 SLP039 60000 T00001011 55001

Satellite

TFRs